createdAt,value
2022-08-11T00:01:59.598Z,90.60
2022-08-11T00:04:34.196Z,90.60
2022-08-11T00:07:03.729Z,90.60
2022-08-11T00:09:38.930Z,90.60
2022-08-11T00:12:14.787Z,90.70
2022-08-11T00:14:42.816Z,90.70
2022-08-11T00:17:12.980Z,90.80
2022-08-11T00:20:11.837Z,90.90
2022-08-11T00:22:33.346Z,91.00
2022-08-11T00:25:09.066Z,91.10
2022-08-11T00:27:38.119Z,91.20
2022-08-11T00:30:06.731Z,91.20
2022-08-11T00:32:34.503Z,91.30
2022-08-11T00:35:54.134Z,91.30
2022-08-11T00:37:52.605Z,91.30
2022-08-11T00:40:28.206Z,91.50
2022-08-11T00:43:20.393Z,91.50
2022-08-11T00:46:23.352Z,91.50
2022-08-11T00:49:13.131Z,91.40
2022-08-11T00:52:24.443Z,91.80
2022-08-11T00:55:31.132Z,91.70
2022-08-11T00:58:28.052Z,91.60
2022-08-11T01:01:04.057Z,91.70
2022-08-11T01:03:52.890Z,91.80
2022-08-11T01:06:49.507Z,92.00
2022-08-11T01:09:41.038Z,91.80
2022-08-11T01:12:38.998Z,92.00
2022-08-11T01:15:33.986Z,92.40
2022-08-11T01:18:38.420Z,92.10
2022-08-11T01:21:16.965Z,92.20
2022-08-11T01:23:46.432Z,92.00
2022-08-11T01:27:05.681Z,92.20
2022-08-11T01:30:08.449Z,92.30
2022-08-11T01:33:26.928Z,92.50
2022-08-11T01:36:08.543Z,92.60
2022-08-11T01:39:08.837Z,92.40
2022-08-11T01:42:18.786Z,92.50
2022-08-11T01:45:11.386Z,92.50
2022-08-11T01:48:07.120Z,92.90
2022-08-11T01:50:42.757Z,92.60
2022-08-11T01:53:22.011Z,92.60
2022-08-11T01:56:08.862Z,92.50
2022-08-11T01:59:10.102Z,92.60
2022-08-11T02:01:37.323Z,92.50
2022-08-11T02:04:39.778Z,92.70
2022-08-11T02:07:35.794Z,92.60
2022-08-11T02:10:51.744Z,92.70
2022-08-11T02:13:42.125Z,92.50
2022-08-11T02:16:22.564Z,92.70
2022-08-11T02:19:13.796Z,92.80
2022-08-11T02:22:14.011Z,93.00
2022-08-11T02:25:07.339Z,93.10
2022-08-11T02:27:59.368Z,93.10
2022-08-11T02:30:46.240Z,93.20
2022-08-11T02:33:24.786Z,93.10
2022-08-11T02:36:00.417Z,93.50
2022-08-11T02:38:47.633Z,93.20
2022-08-11T02:42:08.711Z,93.30
2022-08-11T02:45:29.697Z,93.20
2022-08-11T02:48:38.601Z,93.20
2022-08-11T02:51:25.893Z,93.20
2022-08-11T02:54:21.276Z,93.60
2022-08-11T02:57:24.298Z,93.60
2022-08-11T03:00:07.689Z,93.80
2022-08-11T03:02:57.505Z,93.80
2022-08-11T03:05:54.091Z,93.80
2022-08-11T03:08:30.065Z,93.90
2022-08-11T03:11:37.871Z,93.90
2022-08-11T03:14:48.685Z,93.90
2022-08-11T03:17:37.809Z,94.00
2022-08-11T03:20:33.319Z,94.10
2022-08-11T03:23:23.514Z,94.10
2022-08-11T03:26:12.231Z,94.00
2022-08-11T03:28:51.551Z,94.20
2022-08-11T03:31:36.808Z,94.20
2022-08-11T03:34:07.598Z,94.30
2022-08-11T03:37:16.059Z,94.30
2022-08-11T03:39:59.771Z,94.30
2022-08-11T03:42:38.242Z,94.20
2022-08-11T03:45:16.891Z,94.20
2022-08-11T03:48:17.850Z,94.30
2022-08-11T03:51:08.557Z,94.50
2022-08-11T03:54:13.228Z,94.40
2022-08-11T03:57:08.962Z,94.30
2022-08-11T04:00:13.206Z,94.50
2022-08-11T04:03:01.558Z,94.40
2022-08-11T04:06:11.891Z,94.60
2022-08-11T04:09:07.943Z,94.50
2022-08-11T04:11:37.634Z,94.50
2022-08-11T04:14:45.074Z,94.50
2022-08-11T04:17:32.674Z,94.60
2022-08-11T04:20:08.119Z,94.70
2022-08-11T04:22:48.312Z,94.90
2022-08-11T04:25:51.048Z,94.80
2022-08-11T04:28:55.556Z,94.60
2022-08-11T04:31:51.759Z,94.70
2022-08-11T04:34:57.050Z,94.90
2022-08-11T04:37:51.348Z,94.90
2022-08-11T04:40:54.934Z,95.10
2022-08-11T04:44:05.702Z,95.10
2022-08-11T04:46:48.189Z,95.40
2022-08-11T04:50:12.274Z,95.40
2022-08-11T04:53:16.720Z,95.40
2022-08-11T04:56:37.031Z,95.40
2022-08-11T04:59:53.483Z,95.20
2022-08-11T05:02:54.868Z,95.40
2022-08-11T05:05:31.982Z,95.50
2022-08-11T05:08:49.051Z,95.30
2022-08-11T05:11:46.058Z,95.10
2022-08-11T05:14:31.010Z,95.20
2022-08-11T05:17:27.774Z,95.40
2022-08-11T05:20:12.886Z,95.20
2022-08-11T05:23:06.167Z,95.10
2022-08-11T05:26:45.066Z,95.30
2022-08-11T05:29:21.014Z,94.90
2022-08-11T05:32:26.238Z,94.80
2022-08-11T05:34:54.687Z,94.70
2022-08-11T05:37:31.903Z,94.90
2022-08-11T05:40:31.638Z,94.70
2022-08-11T05:43:31.293Z,94.80
2022-08-11T05:46:21.045Z,94.80
2022-08-11T05:49:09.117Z,94.60
2022-08-11T05:52:05.128Z,94.40
2022-08-11T05:54:54.507Z,94.40
2022-08-11T05:57:43.857Z,94.50
2022-08-11T06:00:12.385Z,94.10
2022-08-11T06:02:55.248Z,93.90
2022-08-11T06:05:22.906Z,94.10
2022-08-11T06:07:55.196Z,93.70
2022-08-11T06:10:34.291Z,93.40
2022-08-11T06:13:02.260Z,93.50
2022-08-11T06:15:32.069Z,93.20
2022-08-11T06:18:04.110Z,93.50
2022-08-11T06:20:36.864Z,93.00
2022-08-11T06:23:06.599Z,93.00
2022-08-11T06:25:35.877Z,93.10
2022-08-11T06:28:07.426Z,93.00
2022-08-11T06:30:42.855Z,92.60
2022-08-11T06:33:29.976Z,92.10
2022-08-11T06:36:14.809Z,92.10
2022-08-11T06:39:08.492Z,91.80
2022-08-11T06:41:49.261Z,91.50
2022-08-11T06:44:32.471Z,91.60
2022-08-11T06:47:08.759Z,91.40
2022-08-11T06:49:58.550Z,91.30
2022-08-11T06:52:36.394Z,90.80
2022-08-11T06:55:56.547Z,90.50
2022-08-11T06:58:47.555Z,90.10
2022-08-11T07:01:23.146Z,89.60
2022-08-11T07:04:01.458Z,88.20
2022-08-11T07:07:14.588Z,89.60
2022-08-11T07:10:34.796Z,87.70
2022-08-11T07:13:39.405Z,87.20
2022-08-11T07:16:11.349Z,86.80
2022-08-11T07:19:00.939Z,88.10
2022-08-11T07:22:02.402Z,86.70
2022-08-11T07:25:02.772Z,86.60
2022-08-11T07:27:59.063Z,85.10
2022-08-11T07:30:26.333Z,86.70
2022-08-11T07:32:55.513Z,86.20
2022-08-11T07:35:31.215Z,85.30
2022-08-11T07:38:04.058Z,84.90
2022-08-11T07:40:34.669Z,84.30
2022-08-11T07:43:03.371Z,84.20
2022-08-11T07:45:49.592Z,82.90
2022-08-11T07:48:36.616Z,83.70
2022-08-11T07:51:22.328Z,82.80
2022-08-11T07:53:58.712Z,83.30
2022-08-11T07:56:54.366Z,83.60
2022-08-11T08:00:01.002Z,83.40
2022-08-11T08:02:50.061Z,84.30
2022-08-11T08:05:37.479Z,83.30
2022-08-11T08:08:23.748Z,82.50
2022-08-11T08:11:09.751Z,82.10
2022-08-11T08:13:56.494Z,81.80
2022-08-11T08:16:42.138Z,82.50
2022-08-11T08:19:13.342Z,81.40
2022-08-11T08:21:40.501Z,82.50
2022-08-11T08:24:12.572Z,81.50
2022-08-11T08:26:59.525Z,81.30
2022-08-11T08:29:55.147Z,81.10
2022-08-11T08:32:22.452Z,80.50
2022-08-11T08:34:54.195Z,78.70
2022-08-11T08:37:45.282Z,79.40
2022-08-11T08:40:11.239Z,79.40
2022-08-11T08:42:51.385Z,80.00
2022-08-11T08:45:18.615Z,80.00
2022-08-11T08:47:54.884Z,79.60
2022-08-11T08:50:27.736Z,78.80
2022-08-11T08:53:07.091Z,78.60
2022-08-11T08:55:34.327Z,78.40
2022-08-11T08:58:02.047Z,77.90
2022-08-11T09:00:41.108Z,78.00
2022-08-11T09:03:38.153Z,77.60
2022-08-11T09:05:56.173Z,77.10
2022-08-11T09:08:24.794Z,77.50
2022-08-11T09:11:14.015Z,77.70
2022-08-11T09:13:44.425Z,77.00
2022-08-11T09:16:12.010Z,76.00
2022-08-11T09:18:41.389Z,76.30
2022-08-11T09:21:08.662Z,75.90
2022-08-11T09:24:14.998Z,75.80
2022-08-11T09:26:59.890Z,72.20
2022-08-11T09:29:29.049Z,73.50
2022-08-11T09:31:57.107Z,74.20
2022-08-11T09:34:26.279Z,73.90
2022-08-11T09:37:12.585Z,74.30
2022-08-11T09:40:00.259Z,72.00
2022-08-11T09:42:47.649Z,72.20
2022-08-11T09:45:15.161Z,72.30
2022-08-11T09:47:44.831Z,72.80
2022-08-11T09:50:14.836Z,72.80
2022-08-11T09:53:03.612Z,71.90
2022-08-11T09:55:29.956Z,71.20
2022-08-11T09:58:42.549Z,71.70
2022-08-11T10:01:03.828Z,71.70
2022-08-11T10:03:33.007Z,71.40
2022-08-11T10:06:22.087Z,72.10
2022-08-11T10:09:03.063Z,70.70
2022-08-11T10:11:30.433Z,70.50
2022-08-11T10:14:31.188Z,70.30
2022-08-11T10:17:05.951Z,69.90
2022-08-11T10:19:35.856Z,68.80
2022-08-11T10:22:22.332Z,69.90
2022-08-11T10:25:07.633Z,69.60
2022-08-11T10:28:16.903Z,69.70
2022-08-11T10:30:42.384Z,70.60
2022-08-11T10:33:36.956Z,69.60
2022-08-11T10:36:16.685Z,69.30
2022-08-11T10:38:45.804Z,69.20
2022-08-11T10:41:32.463Z,68.80
2022-08-11T10:44:02.599Z,68.60
2022-08-11T10:46:49.607Z,68.70
2022-08-11T10:49:17.236Z,67.90
2022-08-11T10:52:03.388Z,67.50
2022-08-11T10:54:52.158Z,66.70
2022-08-11T10:57:38.457Z,67.30
2022-08-11T11:00:06.942Z,67.10
2022-08-11T11:02:34.463Z,68.30
2022-08-11T11:05:24.901Z,67.60
2022-08-11T11:08:26.072Z,67.60
2022-08-11T11:10:53.172Z,67.60
2022-08-11T11:13:40.307Z,67.20
2022-08-11T11:16:44.161Z,67.10
2022-08-11T11:19:12.173Z,67.90
2022-08-11T11:21:39.848Z,67.70
2022-08-11T11:24:33.855Z,66.20
2022-08-11T11:27:09.519Z,67.20
2022-08-11T11:29:49.300Z,67.60
2022-08-11T11:32:35.136Z,67.50
2022-08-11T11:35:26.801Z,66.00
2022-08-11T11:38:04.612Z,65.20
2022-08-11T11:40:33.481Z,65.40
2022-08-11T11:43:01.382Z,65.10
2022-08-11T11:45:28.511Z,65.20
2022-08-11T11:47:59.362Z,65.80
2022-08-11T11:50:36.360Z,65.10
2022-08-11T11:53:08.194Z,65.30
2022-08-11T11:55:35.797Z,64.90
2022-08-11T11:58:22.884Z,64.80
2022-08-11T12:01:10.017Z,63.40
2022-08-11T12:03:38.019Z,63.40
2022-08-11T12:06:07.049Z,62.90
2022-08-11T12:08:34.776Z,62.00
2022-08-11T12:11:24.047Z,62.40
2022-08-11T12:13:53.089Z,63.00
2022-08-11T12:16:33.647Z,63.40
2022-08-11T12:19:09.041Z,62.30
2022-08-11T12:21:37.294Z,62.40
2022-08-11T12:24:28.549Z,63.40
2022-08-11T12:27:17.709Z,62.90
2022-08-11T12:29:55.089Z,62.00
2022-08-11T12:32:25.888Z,62.80
2022-08-11T12:34:53.623Z,62.60
2022-08-11T12:37:45.585Z,61.50
2022-08-11T12:41:11.680Z,62.00
2022-08-11T12:43:56.466Z,61.50
2022-08-11T12:46:29.070Z,61.80
2022-08-11T12:49:17.604Z,59.60
2022-08-11T12:52:06.816Z,60.80
2022-08-11T12:54:59.921Z,61.30
2022-08-11T12:57:57.401Z,61.30
2022-08-11T13:00:44.761Z,61.60
2022-08-11T13:03:32.023Z,61.10
2022-08-11T13:06:02.480Z,61.50
2022-08-11T13:08:35.386Z,61.60
2022-08-11T13:11:21.957Z,62.30
2022-08-11T13:13:54.215Z,61.00
2022-08-11T13:16:27.943Z,62.20
2022-08-11T13:18:56.218Z,61.30
2022-08-11T13:21:23.875Z,61.90
2022-08-11T13:23:59.963Z,61.60
2022-08-11T13:26:48.499Z,63.00
2022-08-11T13:29:28.719Z,62.60
2022-08-11T13:31:59.884Z,62.20
2022-08-11T13:34:28.305Z,60.70
2022-08-11T13:36:58.059Z,61.50
2022-08-11T13:39:27.229Z,61.30
2022-08-11T13:41:57.106Z,61.60
2022-08-11T13:44:27.419Z,61.00
2022-08-11T13:46:57.696Z,60.60
2022-08-11T13:49:25.784Z,61.30
2022-08-11T13:51:54.156Z,60.20
2022-08-11T13:54:27.228Z,60.40
2022-08-11T13:57:00.552Z,60.40
2022-08-11T13:59:29.599Z,60.20
2022-08-11T14:02:28.102Z,60.90
2022-08-11T14:05:01.577Z,60.00
2022-08-11T14:07:35.542Z,60.40
2022-08-11T14:10:04.807Z,60.30
2022-08-11T14:12:53.196Z,60.00
2022-08-11T14:15:22.636Z,60.40
2022-08-11T14:17:54.936Z,59.90
2022-08-11T14:20:39.723Z,58.40
2022-08-11T14:23:10.832Z,59.00
2022-08-11T14:26:01.928Z,58.20
2022-08-11T14:28:37.347Z,57.90
2022-08-11T14:31:09.297Z,58.80
2022-08-11T14:33:58.272Z,57.60
2022-08-11T14:36:26.270Z,58.00
2022-08-11T14:38:53.922Z,58.30
2022-08-11T14:42:11.286Z,58.20
2022-08-11T14:44:49.017Z,58.20
2022-08-11T14:47:24.468Z,58.30
2022-08-11T14:49:58.651Z,57.30
2022-08-11T14:52:38.350Z,58.00
2022-08-11T14:55:25.918Z,58.30
2022-08-11T14:57:56.047Z,58.00
2022-08-11T15:00:34.249Z,57.10
2022-08-11T15:03:12.923Z,56.80
2022-08-11T15:05:57.398Z,56.40
2022-08-11T15:08:48.261Z,57.00
2022-08-11T15:11:36.730Z,58.00
2022-08-11T15:14:06.178Z,57.80
2022-08-11T15:16:53.427Z,57.40
2022-08-11T15:19:23.647Z,58.40
2022-08-11T15:22:09.506Z,59.30
2022-08-11T15:24:37.254Z,60.10
2022-08-11T15:27:35.547Z,60.00
2022-08-11T15:30:32.817Z,60.40
2022-08-11T15:33:23.124Z,60.60
2022-08-11T15:36:10.693Z,59.70
2022-08-11T15:38:55.782Z,60.10
2022-08-11T15:41:58.499Z,60.40
2022-08-11T15:45:04.866Z,60.90
2022-08-11T15:47:58.387Z,60.00
2022-08-11T15:50:38.070Z,60.40
2022-08-11T15:53:10.276Z,60.60
2022-08-11T15:55:38.962Z,60.70
2022-08-11T15:58:28.117Z,60.20
2022-08-11T16:01:14.900Z,60.50
2022-08-11T16:04:12.675Z,60.60
2022-08-11T16:07:06.084Z,60.30
2022-08-11T16:09:46.979Z,60.60
2022-08-11T16:12:32.650Z,58.60
2022-08-11T16:15:27.778Z,56.00
2022-08-11T16:18:00.259Z,54.00
2022-08-11T16:20:29.086Z,52.50
2022-08-11T16:23:03.234Z,51.80
2022-08-11T16:27:01.997Z,52.30
2022-08-11T16:28:22.384Z,55.00
2022-08-11T16:30:51.026Z,58.30
2022-08-11T16:33:48.357Z,59.40
2022-08-11T16:36:27.604Z,60.80
2022-08-11T16:38:56.750Z,61.40
2022-08-11T16:41:46.294Z,61.50
2022-08-11T16:44:37.534Z,61.40
2022-08-11T16:47:12.930Z,61.80
2022-08-11T16:49:52.466Z,61.70
2022-08-11T16:52:20.947Z,62.60
2022-08-11T16:54:48.349Z,62.50
2022-08-11T16:57:43.138Z,61.50
2022-08-11T17:00:12.688Z,61.30
2022-08-11T17:03:05.619Z,61.90
2022-08-11T17:05:55.150Z,62.80
2022-08-11T17:08:57.384Z,62.90
2022-08-11T17:11:46.086Z,63.20
2022-08-11T17:14:36.145Z,63.30
2022-08-11T17:17:13.180Z,63.70
2022-08-11T17:20:39.744Z,63.80
2022-08-11T17:22:54.397Z,63.80
2022-08-11T17:25:24.415Z,63.90
2022-08-11T17:27:52.426Z,64.30
2022-08-11T17:30:19.754Z,64.30
2022-08-11T17:33:08.944Z,64.50
2022-08-11T17:35:41.534Z,64.30
2022-08-11T17:38:15.585Z,64.10
2022-08-11T17:41:06.510Z,64.60
2022-08-11T17:43:53.097Z,64.70
2022-08-11T17:46:38.874Z,64.50
2022-08-11T17:49:08.202Z,64.40
2022-08-11T17:51:55.259Z,64.10
2022-08-11T17:54:42.650Z,63.80
2022-08-11T17:57:30.399Z,63.30
2022-08-11T17:59:58.417Z,63.20
2022-08-11T18:02:57.931Z,62.40
2022-08-11T18:05:27.878Z,62.90
2022-08-11T18:08:16.133Z,62.40
2022-08-11T18:11:02.540Z,62.40
2022-08-11T18:13:51.557Z,62.30
2022-08-11T18:16:37.614Z,62.50
2022-08-11T18:19:24.845Z,62.50
2022-08-11T18:22:15.363Z,63.00
2022-08-11T18:25:10.601Z,63.10
2022-08-11T18:27:59.121Z,63.60
2022-08-11T18:30:45.786Z,64.00
2022-08-11T18:33:56.822Z,64.40
2022-08-11T18:36:42.382Z,64.80
2022-08-11T18:39:30.726Z,65.20
2022-08-11T18:42:29.054Z,65.40
2022-08-11T18:45:21.162Z,65.70
2022-08-11T18:48:11.621Z,65.80
2022-08-11T18:51:29.895Z,65.70
2022-08-11T18:54:12.990Z,66.00
2022-08-11T18:57:00.532Z,66.40
2022-08-11T18:59:47.546Z,66.60
2022-08-11T19:02:49.381Z,66.80
2022-08-11T19:06:05.976Z,67.00
2022-08-11T19:08:49.059Z,67.10
2022-08-11T19:11:42.795Z,67.30
2022-08-11T19:14:33.436Z,67.30
2022-08-11T19:17:43.587Z,67.40
2022-08-11T19:20:38.126Z,67.40
2022-08-11T19:23:26.650Z,67.40
2022-08-11T19:26:12.537Z,67.30
2022-08-11T19:29:00.663Z,67.10
2022-08-11T19:31:47.702Z,67.10
2022-08-11T19:34:35.670Z,67.10
2022-08-11T19:37:25.110Z,67.50
2022-08-11T19:40:24.340Z,68.00
2022-08-11T19:43:18.613Z,68.20
2022-08-11T19:46:14.998Z,68.30
2022-08-11T19:49:03.138Z,68.70
2022-08-11T19:51:53.420Z,68.90
2022-08-11T19:54:42.605Z,68.70
2022-08-11T19:57:28.484Z,68.80
2022-08-11T20:00:14.755Z,69.20
2022-08-11T20:03:00.178Z,69.70
2022-08-11T20:05:59.697Z,69.90
2022-08-11T20:08:47.936Z,69.90
2022-08-11T20:11:35.709Z,70.40
2022-08-11T20:14:21.940Z,71.10
2022-08-11T20:17:07.539Z,70.80
2022-08-11T20:19:57.112Z,70.40
2022-08-11T20:22:45.260Z,70.40
2022-08-11T20:25:32.591Z,71.10
2022-08-11T20:28:18.157Z,71.30
2022-08-11T20:31:04.456Z,71.20
2022-08-11T20:33:53.223Z,71.40
2022-08-11T20:36:38.495Z,71.60
2022-08-11T20:39:24.317Z,71.80
2022-08-11T20:42:12.205Z,71.80
2022-08-11T20:45:00.043Z,72.00
2022-08-11T20:47:59.438Z,72.60
2022-08-11T20:50:47.348Z,72.90
2022-08-11T20:53:36.734Z,73.90
2022-08-11T20:56:28.334Z,73.10
2022-08-11T20:59:21.825Z,73.30
2022-08-11T21:02:09.837Z,73.70
2022-08-11T21:05:00.225Z,73.60
2022-08-11T21:07:57.283Z,73.80
2022-08-11T21:10:50.573Z,74.10
2022-08-11T21:13:39.255Z,73.90
2022-08-11T21:16:27.272Z,74.20
2022-08-11T21:19:56.391Z,74.70
2022-08-11T21:22:59.389Z,74.70
2022-08-11T21:25:52.033Z,75.10
2022-08-11T21:28:40.887Z,75.80
2022-08-11T21:31:27.585Z,75.80
2022-08-11T21:34:14.557Z,75.60
2022-08-11T21:37:02.591Z,75.50
2022-08-11T21:39:49.614Z,75.70
2022-08-11T21:42:38.282Z,75.60
2022-08-11T21:45:25.958Z,75.90
2022-08-11T21:48:13.910Z,76.10
2022-08-11T21:50:59.270Z,76.30
2022-08-11T21:53:46.457Z,76.60
2022-08-11T21:56:33.007Z,77.20
2022-08-11T21:59:20.005Z,77.80
2022-08-11T22:02:12.391Z,77.60
2022-08-11T22:04:58.308Z,78.10
2022-08-11T22:07:43.713Z,78.50
2022-08-11T22:10:41.183Z,79.20
2022-08-11T22:13:27.131Z,78.80
2022-08-11T22:16:13.160Z,79.30
2022-08-11T22:18:59.058Z,79.20
2022-08-11T22:22:02.353Z,79.10
2022-08-11T22:24:50.995Z,78.60
2022-08-11T22:27:36.544Z,78.90
2022-08-11T22:30:23.795Z,78.70
2022-08-11T22:33:09.766Z,78.80
2022-08-11T22:35:59.873Z,79.40
2022-08-11T22:38:46.029Z,79.60
2022-08-11T22:41:31.767Z,79.00
2022-08-11T22:44:17.714Z,79.40
2022-08-11T22:47:03.872Z,79.60
2022-08-11T22:49:57.521Z,79.90
2022-08-11T22:52:45.016Z,80.40
2022-08-11T22:55:31.839Z,81.10
2022-08-11T22:58:18.122Z,80.40
2022-08-11T23:01:04.084Z,80.80
2022-08-11T23:03:51.029Z,80.70
2022-08-11T23:06:38.484Z,80.90
2022-08-11T23:09:25.070Z,81.10
2022-08-11T23:12:12.087Z,81.00
2022-08-11T23:14:58.736Z,81.00
2022-08-11T23:17:46.008Z,81.40
2022-08-11T23:20:38.301Z,82.30
2022-08-11T23:23:29.764Z,81.70
2022-08-11T23:26:16.334Z,81.80
2022-08-11T23:29:04.939Z,81.70
2022-08-11T23:31:54.048Z,81.90
2022-08-11T23:35:37.054Z,81.90
2022-08-11T23:37:47.989Z,82.20
2022-08-11T23:40:33.284Z,82.40
2022-08-11T23:43:19.658Z,82.20
2022-08-11T23:46:04.834Z,82.30
2022-08-11T23:48:51.529Z,82.50
2022-08-11T23:51:40.922Z,82.30
2022-08-11T23:54:31.605Z,82.50
2022-08-11T23:57:21.427Z,82.70
